Time;durP1;ratioP1;P1;durP2;ratioP2;P2;SDS_P1;SDS_P2;PMS_P1;PMS_P2;Temp;Humidity;BMP_temperature;BMP_pressure;BME280_temperature;BME280_humidity;BME280_pressure;Samples;Min_cycle;Max_cycle;Signal;HPM_P1;HPM_P2
2022/11/12 00:00:52;;;;;;;;;27.00;25.00;;;;;11.87;76.55;102509.06;4982347;28;45453;-73
2022/11/12 00:03:18;;;;;;;;;25.67;25.00;;;;;11.87;76.45;102509.91;4980970;28;46445;-72
2022/11/12 00:05:44;;;;;;;;;24.00;23.33;;;;;11.78;76.36;102499.91;4998157;28;45247;-71
2022/11/12 00:08:10;;;;;;;;;28.67;27.67;;;;;11.20;75.95;102413.41;4980660;28;45257;-72
2022/11/12 00:10:35;;;;;;;;;27.00;26.33;;;;;11.48;76.13;102438.13;4994745;28;47841;-72
2022/11/12 00:13:01;;;;;;;;;28.33;26.67;;;;;11.70;75.98;102472.06;4980381;28;45630;-72
2022/11/12 00:15:27;;;;;;;;;28.67;27.00;;;;;11.87;76.41;102506.41;4995912;28;45279;-71
2022/11/12 00:17:53;;;;;;;;;24.67;23.00;;;;;11.35;76.70;102423.94;4995155;28;45596;-72
2022/11/12 00:20:18;;;;;;;;;27.33;25.33;;;;;11.85;76.60;102511.00;4980409;28;46726;-72
2022/11/12 00:22:44;;;;;;;;;26.33;26.33;;;;;11.48;76.69;102459.41;4980264;28;45331;-73
2022/11/12 00:25:09;;;;;;;;;29.33;26.33;;;;;11.36;76.73;102453.13;4982066;28;45323;-70
2022/11/12 00:27:35;;;;;;;;;28.00;27.67;;;;;11.73;77.10;102522.47;4981904;28;45337;-72
2022/11/12 00:30:00;;;;;;;;;28.33;28.33;;;;;10.82;76.83;102380.66;4980157;28;46187;-73
2022/11/12 00:32:26;;;;;;;;;32.00;28.33;;;;;11.54;77.70;102496.28;4980190;28;45616;-71
2022/11/12 00:34:51;;;;;;;;;29.33;28.00;;;;;11.30;77.50;102471.34;4978884;28;45246;-72
2022/11/12 00:37:17;;;;;;;;;30.67;28.67;;;;;11.42;77.46;102499.81;4994944;28;45635;-72
2022/11/12 00:39:43;;;;;;;;;28.67;27.00;;;;;11.49;77.51;102522.38;4978634;28;47930;-70
2022/11/12 00:42:09;;;;;;;;;29.67;29.67;;;;;11.43;78.04;102526.34;4978507;28;46886;-71
2022/11/12 00:44:34;;;;;;;;;35.00;31.00;;;;;10.64;77.83;102386.25;4979745;28;46394;-73
2022/11/12 00:46:59;;;;;;;;;33.00;30.00;;;;;11.35;78.57;102506.50;4980317;28;45362;-71
2022/11/12 00:49:25;;;;;;;;;26.33;25.00;;;;;11.32;78.62;102510.22;4994756;28;48081;-72
2022/11/12 00:51:50;;;;;;;;;29.33;28.00;;;;;10.77;78.69;102412.84;4994775;28;46196;-71
2022/11/12 00:54:16;;;;;;;;;33.33;29.67;;;;;11.27;78.56;102499.06;4979712;28;45228;-71
2022/11/12 00:56:41;;;;;;;;;21.67;21.67;;;;;10.46;78.61;102368.88;4995026;28;45468;-69
2022/11/12 00:59:07;;;;;;;;;27.33;26.33;;;;;11.05;79.07;102489.03;4980414;28;45678;-71
2022/11/12 01:01:33;;;;;;;;;29.33;26.67;;;;;10.54;79.09;102394.94;4995378;28;45774;-72
2022/11/12 01:03:58;;;;;;;;;27.67;26.67;;;;;11.17;79.02;102506.78;4994902;28;45487;-71
2022/11/12 01:06:25;;;;;;;;;27.67;27.00;;;;;11.20;78.95;102503.91;4980223;28;45167;-71
2022/11/12 01:08:51;;;;;;;;;33.00;29.00;;;;;11.04;78.88;102479.34;4979196;28;45373;-70
2022/11/12 01:11:20;;;;;;;;;26.33;25.00;;;;;11.21;78.81;102510.97;4979018;28;45388;-69
2022/11/12 01:13:51;;;;;;;;;25.33;25.33;;;;;11.17;79.28;102506.78;4979399;28;45275;-70
2022/11/12 01:16:19;;;;;;;;;22.33;21.33;;;;;11.16;79.30;102510.41;4979574;28;45531;-71
2022/11/12 01:18:45;;;;;;;;;29.00;26.67;;;;;11.09;79.43;102489.66;4993833;28;46668;-71
2022/11/12 01:21:12;;;;;;;;;27.33;24.00;;;;;10.93;78.84;102458.75;4978824;28;45342;-71
2022/11/12 01:23:40;;;;;;;;;23.67;23.00;;;;;11.17;79.36;102503.28;4979235;28;45434;-70
2022/11/12 01:26:07;;;;;;;;;25.33;23.00;;;;;10.90;79.51;102444.81;4979150;28;45490;-71
2022/11/12 01:28:33;;;;;;;;;25.67;23.67;;;;;10.96;79.27;102449.72;4977632;28;47536;-73
2022/11/12 01:31:10;;;;;;;;;20.00;18.67;;;;;10.71;78.93;102409.78;4979321;28;45683;-71
2022/11/12 01:33:35;;;;;;;;;28.33;25.00;;;;;9.57;78.74;102218.97;4979294;28;45295;-72
2022/11/12 01:36:01;;;;;;;;;26.67;19.33;;;;;11.02;79.46;102462.63;4978704;28;45512;-71
2022/11/12 01:38:26;;;;;;;;;23.33;22.33;;;;;11.17;79.23;102480.19;4978545;28;47011;-71
2022/11/12 01:40:51;;;;;;;;;30.00;25.00;;;;;11.11;78.91;102467.28;4993810;28;45512;-72
2022/11/12 01:43:16;;;;;;;;;28.00;26.00;;;;;10.69;78.78;102385.09;4978692;28;45325;-71
2022/11/12 01:45:45;;;;;;;;;24.33;23.33;;;;;11.31;78.78;102489.03;4993949;28;45516;-71
2022/11/12 01:48:25;;;;;;;;;23.67;22.67;;;;;11.17;78.46;102460.69;4978713;28;46495;-69
2022/11/12 01:50:51;;;;;;;;;24.00;23.00;;;;;10.88;78.92;102417.47;4978933;28;45180;-71
2022/11/12 01:53:18;;;;;;;;;13.33;10.00;;;;;10.08;79.04;102281.06;4979936;28;45504;-71
2022/11/12 01:55:43;;;;;;;;;25.33;22.00;;;;;10.30;78.83;102315.03;4979337;28;45308;-72
2022/11/12 01:58:14;;;;;;;;;23.67;22.67;;;;;11.14;79.10;102453.78;4978578;28;45870;-70
2022/11/12 02:00:40;;;;;;;;;23.67;23.67;;;;;11.31;78.44;102465.06;4977121;28;45449;-71
2022/11/12 02:03:20;;;;;;;;;21.67;21.00;;;;;11.03;78.69;102436.84;4978517;28;45260;-71
2022/11/12 02:05:48;;;;;;;;;20.67;19.33;;;;;11.30;78.46;102464.22;4978774;28;45395;-71
2022/11/12 02:08:14;;;;;;;;;22.67;22.33;;;;;10.88;78.24;102391.72;4978119;28;45701;-73
2022/11/12 02:10:40;;;;;;;;;22.33;22.33;;;;;11.04;78.69;102426.09;4977713;28;45383;-70
2022/11/12 02:15:51;;;;;;;;;24.00;23.00;;;;;11.05;78.26;102446.44;4978457;28;45369;-71
2022/11/12 02:18:16;;;;;;;;;23.67;20.33;;;;;11.21;78.98;102484.34;4978214;28;46789;-71
2022/11/12 02:20:42;;;;;;;;;23.33;20.00;;;;;10.67;79.07;102403.81;4977546;28;45432;-72
2022/11/12 02:23:08;;;;;;;;;24.33;21.67;;;;;11.13;78.93;102491.16;4978602;28;45425;-71
2022/11/12 02:25:34;;;;;;;;;21.67;20.33;;;;;11.00;78.97;102463.66;4978826;28;45354;-70
2022/11/12 02:28:04;;;;;;;;;12.67;11.33;;;;;10.71;79.11;102429.25;4978079;28;45737;-72
2022/11/12 02:30:35;;;;;;;;;25.00;23.00;;;;;10.21;79.47;102328.94;4978222;28;45314;-71
2022/11/12 02:33:00;;;;;;;;;23.00;21.67;;;;;11.01;78.92;102466.22;4978205;28;45334;-70
2022/11/12 02:35:25;;;;;;;;;17.00;16.33;;;;;10.74;79.25;102418.41;4993812;28;45578;-71
2022/11/12 02:37:51;;;;;;;;;26.33;26.00;;;;;10.85;78.72;102423.00;4979964;28;48335;-71
2022/11/12 02:40:16;;;;;;;;;19.00;16.00;;;;;10.68;78.89;102383.38;4978315;28;45407;-73
2022/11/12 02:42:42;;;;;;;;;21.33;20.67;;;;;10.26;79.21;102321.53;4992826;28;45446;-70
2022/11/12 02:45:07;;;;;;;;;22.33;22.00;;;;;10.96;78.71;102439.91;4978204;28;45328;-71
2022/11/12 02:47:33;;;;;;;;;23.00;21.33;;;;;10.96;79.18;102441.72;4977651;28;45342;-72
2022/11/12 02:49:58;;;;;;;;;24.33;23.67;;;;;10.61;79.23;102394.47;4978372;28;45300;-69
2022/11/12 02:52:23;;;;;;;;;24.33;23.67;;;;;10.74;79.37;102409.56;4979193;28;45554;-71
2022/11/12 02:54:49;;;;;;;;;26.00;21.67;;;;;11.04;79.42;102459.84;4977869;28;45460;-70
2022/11/12 02:57:14;;;;;;;;;23.00;21.33;;;;;10.56;79.42;102371.75;4977973;28;47218;-70
2022/11/12 02:59:39;;;;;;;;;24.33;22.00;;;;;11.08;78.68;102454.22;4977454;28;45657;-69
2022/11/12 03:02:05;;;;;;;;;23.00;23.00;;;;;10.84;78.90;102405.34;4977659;28;45448;-71
2022/11/12 03:04:30;;;;;;;;;24.00;21.33;;;;;11.11;78.94;102467.28;4977832;28;45509;-72
2022/11/12 03:06:55;;;;;;;;;23.67;23.00;;;;;11.06;78.97;102441.97;4977441;28;46030;-71
2022/11/12 03:09:22;;;;;;;;;21.33;20.33;;;;;10.24;78.91;102313.66;4977396;28;45279;-70
2022/11/12 03:11:47;;;;;;;;;15.67;15.67;;;;;11.02;78.67;102433.34;4977349;28;45488;-71
2022/11/12 03:14:13;;;;;;;;;26.67;26.00;;;;;9.99;79.04;102265.72;4977440;28;47974;-71
2022/11/12 03:16:38;;;;;;;;;24.33;24.00;;;;;10.97;78.83;102438.09;4992344;28;48488;-71
2022/11/12 03:19:03;;;;;;;;;19.50;18.50;;;;;11.06;79.10;102452.59;4977281;28;45169;-70
2022/11/12 03:21:29;;;;;;;;;20.67;20.67;;;;;10.87;78.97;102405.13;4977145;28;45258;-69
2022/11/12 03:23:54;;;;;;;;;24.33;24.00;;;;;10.58;78.99;102377.81;4977675;28;45401;-70
2022/11/12 03:26:19;;;;;;;;;26.00;22.00;;;;;10.65;79.21;102411.06;4976594;28;66812;-71
2022/11/12 03:28:45;;;;;;;;;27.00;24.33;;;;;10.97;78.79;102435.44;4975561;28;54552;-69
2022/11/12 03:31:10;;;;;;;;;23.00;20.67;;;;;10.95;78.85;102419.59;4976052;28;45507;-71
2022/11/12 03:33:36;;;;;;;;;25.33;22.33;;;;;9.96;78.96;102269.44;4978671;28;45365;-71
2022/11/12 03:36:03;;;;;;;;;25.67;21.00;;;;;9.99;79.28;102281.66;4979052;28;47144;-71
2022/11/12 03:38:28;;;;;;;;;24.67;24.67;;;;;10.88;79.91;102428.09;4995555;28;45717;-70
2022/11/12 03:40:53;;;;;;;;;23.33;22.00;;;;;10.74;79.79;102426.38;4980482;28;45467;-71
2022/11/12 03:43:19;;;;;;;;;23.67;23.33;;;;;10.62;79.11;102408.59;4981555;28;45467;-70
2022/11/12 03:45:44;;;;;;;;;24.00;22.67;;;;;10.61;79.05;102410.41;4980865;28;46444;-69
2022/11/12 03:48:09;;;;;;;;;29.00;25.67;;;;;10.84;79.68;102432.78;4979877;28;57608;-71
2022/11/12 03:50:35;;;;;;;;;23.67;22.00;;;;;9.69;79.35;102255.34;4978971;28;45319;-70
2022/11/12 03:53:00;;;;;;;;;26.33;23.67;;;;;10.81;79.20;102427.69;4980848;28;45362;-72
2022/11/12 03:55:28;;;;;;;;;28.67;28.00;;;;;10.65;79.42;102406.59;4980294;28;45897;-70
2022/11/12 03:57:54;;;;;;;;;30.00;28.00;;;;;10.71;80.03;102431.91;4978810;28;45889;-70
2022/11/12 04:00:22;;;;;;;;;27.67;24.67;;;;;10.81;79.91;102454.28;4980290;28;45375;-71
2022/11/12 04:02:47;;;;;;;;;26.33;23.33;;;;;10.55;79.46;102410.81;4980444;28;45530;-70
2022/11/12 04:10:47;;;;;;;;;23.00;23.00;;;;;10.90;79.25;102455.47;4979692;28;45433;-71
2022/11/12 04:13:28;;;;;;;;;27.67;24.33;;;;;10.74;78.93;102428.19;4980344;28;45476;-71
2022/11/12 04:22:02;;;;;;;;;23.67;22.33;;;;;10.93;78.19;102458.75;4958023;28;45498;-69
2022/11/12 04:27:22;;;;;;;;;31.33;26.00;;;;;11.11;78.05;102456.66;4974929;28;45697;-71
2022/11/12 04:32:35;;;;;;;;;22.33;22.33;;;;;10.72;78.21;102391.06;4979569;28;45406;-69
2022/11/12 04:35:01;;;;;;;;;24.67;23.00;;;;;11.12;77.98;102454.84;4994725;28;45272;-70
2022/11/12 04:37:42;;;;;;;;;27.33;25.00;;;;;11.15;77.62;102458.13;4978108;28;47597;-71
2022/11/12 04:45:48;;;;;;;;;29.33;29.33;;;;;10.91;78.83;102439.38;4979332;28;45259;-71
2022/11/12 04:48:14;;;;;;;;;29.00;26.00;;;;;10.60;78.79;102403.34;4979227;28;45758;-70
2022/11/12 04:50:41;;;;;;;;;34.33;31.67;;;;;10.62;78.89;102414.78;4979437;28;45311;-71
2022/11/12 04:53:06;;;;;;;;;32.67;29.33;;;;;10.76;78.88;102434.25;4979335;28;45257;-70
2022/11/12 04:55:31;;;;;;;;;35.33;29.33;;;;;10.80;79.19;102449.03;4979251;28;45339;-70
2022/11/12 04:57:57;;;;;;;;;20.67;18.33;;;;;10.17;78.95;102357.50;4994139;28;50324;-70
2022/11/12 05:00:22;;;;;;;;;27.33;26.00;;;;;10.77;79.35;102450.09;4979230;28;45340;-70
2022/11/12 05:02:49;;;;;;;;;35.33;31.00;;;;;10.77;79.32;102447.44;4979100;28;45456;-71
2022/11/12 05:05:14;;;;;;;;;24.67;24.67;;;;;10.79;78.97;102466.81;4979742;28;45278;-70
2022/11/12 05:07:39;;;;;;;;;27.00;26.67;;;;;10.06;78.59;102318.38;4977332;28;48567;-72
2022/11/12 05:10:06;;;;;;;;;29.00;25.67;;;;;10.84;79.01;102437.25;4979758;28;45254;-70
2022/11/12 05:12:31;;;;;;;;;34.33;28.33;;;;;10.45;78.63;102391.13;4980640;28;45318;-71
2022/11/12 05:14:56;;;;;;;;;25.33;22.67;;;;;10.70;79.16;102440.00;4994487;28;45831;-71
2022/11/12 05:17:22;;;;;;;;;22.67;21.67;;;;;10.72;78.71;102412.31;4978656;28;47636;-70
2022/11/12 05:19:47;;;;;;;;;24.33;24.33;;;;;10.80;78.34;102425.09;4979090;28;45287;-70
2022/11/12 05:22:12;;;;;;;;;32.00;28.67;;;;;10.64;78.76;102399.56;4979048;28;45563;-70
2022/11/12 05:24:41;;;;;;;;;22.00;21.33;;;;;10.94;78.33;102454.28;4994328;28;45246;-71
2022/11/12 05:27:08;;;;;;;;;24.67;24.67;;;;;10.96;78.47;102452.38;4978470;28;45659;-69
2022/11/12 05:29:34;;;;;;;;;26.33;24.00;;;;;10.58;78.02;102384.00;4978764;28;45412;-71
2022/11/12 05:32:00;;;;;;;;;26.00;23.67;;;;;10.97;77.60;102444.28;4994480;28;45299;-70
2022/11/12 05:34:26;;;;;;;;;23.33;23.33;;;;;10.66;78.11;102399.47;4979746;28;45534;-71
2022/11/12 05:36:51;;;;;;;;;25.33;22.67;;;;;10.68;78.28;102424.13;4978490;28;46767;-70
2022/11/12 05:39:16;;;;;;;;;26.33;24.00;;;;;10.76;78.43;102432.44;4978510;28;45303;-70
2022/11/12 05:41:42;;;;;;;;;27.33;24.00;;;;;10.77;78.24;102425.31;4978869;28;45606;-71
2022/11/12 05:44:07;;;;;;;;;28.33;28.00;;;;;10.57;78.07;102387.63;4978921;28;45374;-70
2022/11/12 05:46:33;;;;;;;;;22.67;21.67;;;;;10.53;78.85;102371.97;4993423;28;48393;-70
2022/11/12 05:48:58;;;;;;;;;27.67;25.33;;;;;10.56;78.50;102388.56;4977321;28;45497;-70
2022/11/12 05:51:23;;;;;;;;;26.67;26.33;;;;;10.80;78.42;102431.28;4978206;28;50390;-74
2022/11/12 05:53:49;;;;;;;;;28.00;25.00;;;;;10.59;78.56;102401.66;4977389;28;45509;-70
2022/11/12 05:56:14;;;;;;;;;29.67;26.33;;;;;10.73;78.48;102451.28;4976192;28;48657;-71
2022/11/12 05:58:39;;;;;;;;;32.67;27.67;;;;;10.71;78.73;102429.25;4978338;28;45480;-71
2022/11/12 06:01:05;;;;;;;;;27.00;25.00;;;;;10.66;79.13;102460.63;4978540;28;45358;-71
2022/11/12 06:03:30;;;;;;;;;27.67;27.00;;;;;10.36;78.58;102394.38;4978527;28;45365;-70
2022/11/12 06:05:56;;;;;;;;;37.00;28.67;;;;;10.69;78.85;102448.94;4993573;28;48467;-71
2022/11/12 06:08:22;;;;;;;;;33.00;30.00;;;;;10.16;79.24;102381.53;4978084;28;45204;-70
2022/11/12 06:10:52;;;;;;;;;25.00;23.67;;;;;10.63;78.49;102445.75;4978207;28;45456;-71
2022/11/12 06:13:19;;;;;;;;;26.00;23.00;;;;;10.55;79.12;102471.97;4978354;28;45357;-70
2022/11/12 06:15:44;;;;;;;;;24.00;21.67;;;;;10.51;79.02;102467.81;4976602;28;46353;-70
2022/11/12 06:18:10;;;;;;;;;24.33;23.67;;;;;10.45;79.21;102444.31;4977653;28;45468;-70
2022/11/12 06:20:36;;;;;;;;;25.33;22.67;;;;;10.54;78.98;102472.94;4978128;28;45342;-69
2022/11/12 06:23:01;;;;;;;;;25.67;23.67;;;;;10.28;78.65;102417.97;4993391;28;45439;-70
2022/11/12 06:25:27;;;;;;;;;26.67;22.33;;;;;10.17;78.87;102409.81;4977236;28;47579;-71
2022/11/12 06:27:53;;;;;;;;;22.00;22.00;;;;;10.46;78.58;102438.03;4993462;28;45315;-70
2022/11/12 06:30:18;;;;;;;;;28.67;23.00;;;;;10.56;78.62;102459.53;4976412;28;45483;-69
2022/11/12 06:32:50;;;;;;;;;26.00;23.33;;;;;10.59;78.59;102461.97;4978086;28;45251;-71
2022/11/12 06:35:17;;;;;;;;;28.00;25.33;;;;;10.40;78.64;102425.13;4976297;28;48404;-70
2022/11/12 06:37:46;;;;;;;;;31.67;27.00;;;;;10.53;78.39;102460.59;4977756;28;45250;-70
2022/11/12 06:40:12;;;;;;;;;27.33;26.00;;;;;10.54;78.82;102461.44;4978966;28;45539;-70
2022/11/12 06:42:37;;;;;;;;;30.67;26.00;;;;;10.20;78.50;102410.44;4978008;28;45691;-70
2022/11/12 06:45:03;;;;;;;;;27.00;24.67;;;;;10.12;78.39;102406.59;4977821;28;45472;-69
2022/11/12 06:47:28;;;;;;;;;27.67;25.00;;;;;10.02;78.28;102399.25;4975961;28;45461;-69
2022/11/12 06:49:53;;;;;;;;;25.33;25.00;;;;;10.45;78.34;102462.91;4976332;28;45365;-70
2022/11/12 06:52:19;;;;;;;;;27.67;25.67;;;;;10.42;78.43;102479.06;4977896;28;45499;-70
2022/11/12 06:54:44;;;;;;;;;30.67;26.00;;;;;10.22;78.55;102440.50;4977478;28;45596;-70
2022/11/12 06:57:09;;;;;;;;;27.67;24.67;;;;;10.34;78.51;102470.72;4977561;28;45511;-71
2022/11/12 06:59:35;;;;;;;;;31.00;28.00;;;;;10.27;78.87;102478.25;4977513;28;45425;-71
2022/11/12 07:02:00;;;;;;;;;25.67;24.67;;;;;10.17;79.05;102461.16;4977907;28;45205;-71
2022/11/12 07:04:26;;;;;;;;;29.33;28.00;;;;;10.25;78.53;102474.00;4992334;28;48576;-72
2022/11/12 07:06:52;;;;;;;;;30.00;24.67;;;;;10.34;78.99;102484.88;4977451;28;45171;-71
2022/11/12 07:09:17;;;;;;;;;29.33;27.33;;;;;9.98;78.66;102416.31;4978284;28;45530;-69
2022/11/12 07:11:42;;;;;;;;;24.33;20.00;;;;;10.36;78.53;102469.66;4992638;28;45564;-71
2022/11/12 07:14:08;;;;;;;;;33.67;27.67;;;;;9.64;78.72;102353.91;4977436;28;46412;-70
2022/11/12 07:16:34;;;;;;;;;25.33;25.33;;;;;10.48;78.18;102468.03;4991741;28;45876;-71
2022/11/12 07:18:59;;;;;;;;;31.00;27.67;;;;;10.47;77.87;102463.66;4977422;28;45310;-70
2022/11/12 07:21:25;;;;;;;;;28.67;25.00;;;;;10.61;77.67;102473.38;4976430;28;45466;-72
2022/11/12 07:23:51;;;;;;;;;29.00;25.00;;;;;10.46;77.75;102442.50;4992630;28;48806;-72
2022/11/12 07:26:19;;;;;;;;;28.33;25.00;;;;;10.56;77.57;102452.41;4977379;28;45269;-71
2022/11/12 07:28:46;;;;;;;;;24.00;23.33;;;;;9.80;76.92;102329.00;4977454;28;45307;-72
2022/11/12 07:31:14;;;;;;;;;23.00;22.00;;;;;10.41;77.09;102418.88;4977551;28;45255;-72
2022/11/12 07:33:39;;;;;;;;;23.00;21.00;;;;;10.71;76.58;102477.13;4976949;28;45770;-71
2022/11/12 07:36:13;;;;;;;;;25.33;18.00;;;;;10.62;76.90;102507.88;4977289;28;45430;-70
2022/11/12 07:38:40;;;;;;;;;27.00;24.67;;;;;10.26;76.72;102431.38;4978676;28;45311;-72
2022/11/12 07:41:07;;;;;;;;;24.00;22.00;;;;;10.62;77.06;102494.56;4994456;28;45446;-70
2022/11/12 07:43:34;;;;;;;;;25.00;21.33;;;;;10.49;76.99;102466.22;4977072;28;45851;-70
2022/11/12 07:46:02;;;;;;;;;21.67;20.67;;;;;10.79;76.38;102503.22;4977263;28;45417;-70
2022/11/12 07:48:28;;;;;;;;;17.00;16.33;;;;;10.83;76.20;102494.09;4975602;28;45260;-71
2022/11/12 07:51:03;;;;;;;;;23.33;23.00;;;;;10.88;76.13;102487.50;4977340;28;45425;-70
2022/11/12 07:53:28;;;;;;;;;27.67;24.33;;;;;10.64;75.67;102450.09;4976918;28;46728;-71
2022/11/12 07:55:55;;;;;;;;;23.33;22.00;;;;;10.98;75.65;102498.34;4975358;28;45424;-70
2022/11/12 07:58:21;;;;;;;;;22.67;20.00;;;;;10.73;76.06;102440.63;4976923;28;45381;-72
2022/11/12 08:00:46;;;;;;;;;26.67;23.67;;;;;11.15;75.80;102500.72;4975953;28;45470;-77
2022/11/12 08:03:12;;;;;;;;;24.67;24.00;;;;;11.10;75.51;102491.38;4990324;28;46645;-70
2022/11/12 08:05:37;;;;;;;;;23.33;22.33;;;;;11.02;74.96;102462.63;4976233;28;45414;-71
2022/11/12 08:08:03;;;;;;;;;25.00;21.33;;;;;10.83;74.54;102401.81;4991278;28;48592;-72
2022/11/12 08:10:28;;;;;;;;;21.33;20.33;;;;;11.47;73.93;102474.56;4974946;28;45485;-72
2022/11/12 08:12:55;;;;;;;;;21.00;21.00;;;;;11.95;73.56;102508.50;4976753;28;46866;-72
2022/11/12 08:15:20;;;;;;;;;23.67;22.00;;;;;11.30;72.46;102348.88;4976683;28;45554;-73
2022/11/12 08:17:46;;;;;;;;;21.67;21.67;;;;;11.78;71.20;102372.00;4974433;28;45264;-71
2022/11/12 08:20:12;;;;;;;;;22.00;22.00;;;;;12.97;69.90;102520.47;4977810;28;45524;-70
2022/11/12 08:22:37;;;;;;;;;24.00;20.33;;;;;13.26;68.87;102518.28;4980163;28;45627;-71
2022/11/12 08:25:02;;;;;;;;;26.33;21.67;;;;;13.46;68.05;102502.53;4979214;28;45301;-75
2022/11/12 08:27:28;;;;;;;;;28.33;22.33;;;;;13.70;67.12;102493.44;4980211;28;46181;-72
2022/11/12 08:29:53;;;;;;;;;21.67;21.67;;;;;13.99;66.03;102516.97;4995553;28;45559;-73
2022/11/12 08:32:18;;;;;;;;;26.67;25.00;;;;;14.14;65.22;102489.00;4980489;28;45473;-72
2022/11/12 08:34:44;;;;;;;;;21.67;21.67;;;;;14.39;64.10;102500.38;4977861;28;60187;-73
2022/11/12 08:37:09;;;;;;;;;16.67;15.67;;;;;14.89;63.12;102521.16;4980734;28;45235;-72
2022/11/12 08:39:34;;;;;;;;;19.67;19.67;;;;;15.82;61.20;102531.06;4979918;28;45507;-70
2022/11/12 08:42:00;;;;;;;;;23.67;20.67;;;;;16.04;58.61;102442.34;4979706;28;45988;-72
2022/11/12 08:44:25;;;;;;;;;23.67;20.67;;;;;16.43;57.88;102502.28;4978983;28;56216;-71
2022/11/12 08:46:50;;;;;;;;;23.33;22.00;;;;;16.92;56.31;102519.28;4994587;28;51437;-72
2022/11/12 08:49:16;;;;;;;;;20.00;20.00;;;;;17.74;54.73;102490.97;4978999;28;45499;-73
2022/11/12 08:51:41;;;;;;;;;24.00;23.67;;;;;18.69;51.92;102474.38;4978307;28;45759;-71
2022/11/12 08:54:06;;;;;;;;;27.00;20.67;;;;;19.85;49.69;102525.25;4979021;28;45496;-75
2022/11/12 08:56:32;;;;;;;;;26.33;24.67;;;;;20.30;47.51;102473.59;4978181;28;45768;-72
2022/11/12 08:58:58;;;;;;;;;20.00;19.00;;;;;20.52;45.59;102461.31;4993688;28;45641;-72
2022/11/12 09:01:24;;;;;;;;;22.00;20.00;;;;;20.81;44.87;102454.56;4979477;28;46064;-70
2022/11/12 09:03:49;;;;;;;;;17.33;17.33;;;;;21.31;44.71;102500.34;4991613;28;45263;-68
2022/11/12 09:06:15;;;;;;;;;24.67;21.00;;;;;20.80;45.21;102483.44;4995083;28;45682;-69
2022/11/12 09:08:40;;;;;;;;;24.33;21.67;;;;;19.84;46.08;102430.94;4979590;28;45351;-70
2022/11/12 09:11:06;;;;;;;;;22.00;18.00;;;;;19.82;47.73;102506.66;4977768;28;47998;-71
2022/11/12 09:13:32;;;;;;;;;20.33;19.33;;;;;18.95;48.43;102444.75;4977873;28;45705;-71
2022/11/12 09:16:02;;;;;;;;;18.67;18.67;;;;;18.47;49.89;102441.50;4979111;28;45331;-72
2022/11/12 09:18:28;;;;;;;;;24.33;21.33;;;;;18.22;50.82;102447.66;4979449;28;45404;-71
2022/11/12 09:20:59;;;;;;;;;28.67;26.00;;;;;18.08;50.69;102497.47;4979035;28;45583;-73
2022/11/12 09:23:24;;;;;;;;;21.67;20.67;;;;;17.37;52.29;102438.00;4979377;28;45527;-70
2022/11/12 09:25:49;;;;;;;;;24.33;23.33;;;;;17.49;52.96;102532.78;4977221;28;45331;-74
2022/11/12 09:28:17;;;;;;;;;19.00;17.67;;;;;16.24;54.04;102383.34;4977264;28;45476;-73
2022/11/12 09:30:48;;;;;;;;;22.67;22.00;;;;;16.50;54.72;102485.63;4978218;28;45570;-70
2022/11/12 09:33:19;;;;;;;;;22.67;20.00;;;;;16.32;55.95;102505.09;4979655;28;45435;-72
2022/11/12 09:35:46;;;;;;;;;28.00;27.33;;;;;15.53;56.47;102415.63;4976451;28;45884;-74
2022/11/12 09:38:13;;;;;;;;;23.00;22.00;;;;;15.55;57.11;102467.25;4978907;28;45520;-70
2022/11/12 09:40:46;;;;;;;;;25.00;25.00;;;;;15.64;58.12;102511.22;4976393;28;47927;-70
2022/11/12 09:43:17;;;;;;;;;30.33;25.33;;;;;15.37;58.67;102507.22;4977102;28;45495;-71
2022/11/12 09:45:45;;;;;;;;;29.00;24.67;;;;;15.05;59.22;102490.41;4979231;28;45500;-70
2022/11/12 09:48:26;;;;;;;;;34.33;28.67;;;;;15.12;59.78;102518.34;4978704;28;45536;-71
2022/11/12 09:50:59;;;;;;;;;25.67;25.67;;;;;14.95;60.44;102522.47;4978178;28;45668;-71
2022/11/12 09:53:30;;;;;;;;;30.00;26.00;;;;;14.70;61.16;102539.72;4977703;28;45216;-68
2022/11/12 09:55:55;;;;;;;;;31.00;28.33;;;;;14.51;62.04;102531.53;4978672;28;45341;-70
2022/11/12 09:58:21;;;;;;;;;28.33;27.00;;;;;14.36;62.41;102530.91;4993208;28;45720;-71
2022/11/12 10:00:55;;;;;;;;;30.00;26.00;;;;;13.99;62.82;102496.44;4976823;28;45649;-70
2022/11/12 10:03:44;;;;;;;;;26.00;26.00;;;;;14.10;63.36;102541.06;4978938;28;45452;-71
2022/11/12 10:06:20;;;;;;;;;33.33;30.67;;;;;13.97;63.81;102530.47;4977871;28;45695;-72
2022/11/12 10:08:59;;;;;;;;;13.33;13.00;;;;;12.43;63.94;102272.03;4979928;28;45236;-71
2022/11/12 10:14:54;;;;;;;;;31.00;26.00;;;;;14.05;64.53;102532.56;4977591;28;45274;-71
2022/11/12 10:17:43;;;;;;;;;30.00;28.67;;;;;14.08;64.73;102540.31;4978412;28;45338;-69
2022/11/12 10:20:22;;;;;;;;;27.00;27.00;;;;;14.12;64.80;102539.09;4978926;28;45543;-70
2022/11/12 10:22:57;;;;;;;;;29.67;29.00;;;;;13.55;64.70;102426.97;4979286;28;45683;-71
2022/11/12 10:25:23;;;;;;;;;22.33;21.00;;;;;13.39;64.75;102385.44;4977146;28;45441;-71
2022/11/12 10:27:50;;;;;;;;;27.67;23.33;;;;;14.21;64.79;102519.63;4979580;28;45509;-71
2022/11/12 10:30:22;;;;;;;;;27.00;27.00;;;;;14.09;64.31;102493.88;4980080;28;45411;-70
2022/11/12 10:32:49;;;;;;;;;29.33;28.00;;;;;14.29;64.51;102519.88;4978292;28;45758;-74
2022/11/12 10:35:18;;;;;;;;;27.00;26.00;;;;;14.36;64.33;102519.34;4991395;28;46218;-70
2022/11/12 10:37:52;;;;;;;;;37.33;30.33;;;;;14.42;64.35;102516.19;4976768;28;45956;-71
2022/11/12 10:40:23;;;;;;;;;26.67;23.00;;;;;14.44;64.21;102512.44;4969453;28;45651;-69
2022/11/12 10:42:57;;;;;;;;;27.33;25.00;;;;;14.48;64.02;102513.03;4981797;28;46944;-70
2022/11/12 10:45:23;;;;;;;;;34.33;30.67;;;;;13.88;64.16;102402.03;4978002;28;45425;-71
2022/11/12 10:47:49;;;;;;;;;34.33;29.33;;;;;14.19;64.05;102457.38;4976863;28;45437;-70
2022/11/12 10:50:23;;;;;;;;;38.50;33.00;;;;;14.37;64.16;102488.94;4976931;28;45504;-70
2022/11/12 10:52:57;;;;;;;;;33.67;30.00;;;;;14.55;63.96;102508.88;4992012;28;45635;-71
2022/11/12 10:55:28;;;;;;;;;28.67;28.00;;;;;14.60;64.09;102504.81;4968230;28;45516;-71
2022/11/12 10:58:08;;;;;;;;;26.33;26.33;;;;;14.59;63.99;102502.28;4992205;28;45461;-72
2022/11/12 11:00:35;;;;;;;;;35.33;31.67;;;;;14.48;64.12;102470.22;4975147;28;45534;-76
2022/11/12 11:03:06;;;;;;;;;26.33;22.33;;;;;14.57;64.14;102481.00;4970133;28;46457;-71
2022/11/12 11:05:35;;;;;;;;;28.67;27.67;;;;;13.86;64.37;102353.19;4977513;28;45516;-72
2022/11/12 11:08:01;;;;;;;;;27.00;25.67;;;;;14.43;64.02;102441.19;4977818;28;45207;-72
2022/11/12 11:10:32;;;;;;;;;32.67;30.00;;;;;14.73;64.01;102485.94;4975917;28;45507;-74
2022/11/12 11:13:16;;;;;;;;;31.00;29.67;;;;;14.78;63.75;102482.84;4992225;28;47462;-70
2022/11/12 11:15:57;;;;;;;;;29.67;29.33;;;;;14.05;63.82;102356.03;4959405;28;45239;-70
2022/11/12 11:18:22;;;;;;;;;34.00;30.33;;;;;14.00;64.26;102329.66;4975073;28;45368;-73
2022/11/12 11:21:04;;;;;;;;;35.00;32.00;;;;;14.71;63.76;102454.91;4978996;28;45262;-73
2022/11/12 11:23:49;;;;;;;;;37.33;33.33;;;;;14.72;64.22;102457.47;4978351;28;46588;-70
2022/11/12 11:26:33;;;;;;;;;42.67;34.67;;;;;14.77;64.35;102462.41;4976915;28;45249;-71
2022/11/12 11:29:34;;;;;;;;;37.33;32.67;;;;;14.82;64.06;102450.38;4961191;28;46288;-72
2022/11/12 11:32:19;;;;;;;;;31.00;29.33;;;;;14.86;64.03;102454.47;4989647;28;45660;-72
2022/11/12 11:34:53;;;;;;;;;34.33;30.33;;;;;14.90;63.76;102439.84;4972437;28;46423;-72
2022/11/12 11:37:26;;;;;;;;;35.00;32.33;;;;;14.85;63.95;102423.31;4977331;28;45495;-73
2022/11/12 11:40:02;;;;;;;;;38.33;34.67;;;;;14.89;63.95;102422.06;4977675;28;45370;-74